Cherryfield, ME (04622)

7:51 PM EST on February 13, 2016 (GMT -0500)
Ed Greaves Education (EdGE) Center | | Change Station
CLOSE
Current Station
Personal Weather Station
Location: Cherryfield, ME
Elevation: 65 ft
Nearby Weather Stations
Active Advisory: Wind Chill Advisory Active Notice: Public Information Statement

Elev 65 ft 44.59 °N, 67.93 °W | Updated 9 seconds ago

Overcast
Overcast
10.6 °F
Feels Like 3 °F
N
4.0
Wind Variable Wind from WNW
Gusts 19.0 mph

Today
High -- | Low -- °F
--% Chance of Precip.
Yesterday
High -- | Low -- °F
Precip. -- in
Pressure 29.87 in
Visibility 10.0 miles
Clouds Overcast 7000 ft
Windchill 3 °F
Dew Point 6 °F
Humidity 83%
Rainfall 0.00 in
Snow Depth Not available.
6:35 AM 4:56 PM
Waxing Crescent, 36% visible
METAR KBHB 140035Z 32013G19KT 280V340 10SM OVC070 M13/M16 A2987 RMK AO1
Pressure 29.87 in
Visibility 10.0 miles
Clouds Overcast 7000 ft
Windchill 3 °F
Dew Point 6 °F
Humidity 83%
Rainfall 0.00 in
Snow Depth Not available.
6:35 AM 4:56 PM
Waxing Crescent, 36% visible
METAR KBHB 140035Z 32013G19KT 280V340 10SM OVC070 M13/M16 A2987 RMK AO1

10-Day Weather Forecast

Almanac

Astronomy

Feb. 13, 2016 Rise Set
Actual Time
Civil Twilight
Nautical Twilight
Astronomical Twilight
Moon
Length of Visible Light
Length of Day
Tomorrow will be .
, % of the Moon is Illuminated

Today's Extremes

State Highs State Lows

Community

WunderPhotos

Upload Photos

1,892,715 photos uploaded!

WunderBlog® & News

Nearby

Air Quality

  Air Quality AQ Index Pollutant
Not available.

Snow Depth

Station Depth Elevation

Earthquake Activity

City Distance Mag. Time & Date
Minimum magnitude displayed is 2.5.

Coastal Water Temperatures

Place Temperature

Stations

Nearby Weather Stations

Station Location Temp. Windchill Dew Point Humidity Wind Precip. Elev Updated Type
                   

Watches & Warnings

Wind Chill Advisory
Issued: 2:40 PM EST Feb. 13, 2016 – National Weather Service

... Wind Chill Advisory remains in effect from 2 am to 10 am EST
Sunday...

* locations... southern Aroostook County... northern and central
Penobscot County... southern Piscataquis County and interior and
coastal Washington County.

* Hazard types... bitterly cold wind chills.

* Wind chill readings... as low as 30 below.

* Timing... late tonight into Sunday morning.

* Impacts... frostbite and hypothermia are possible if not
dressed appropriately while outdoors.

* Winds... northwest 10 to 15 mph with gusts up to 35 mph.

* Temperatures... 11 below to 2 above.

Precautionary/preparedness actions...

A Wind Chill Advisory means that very cold air and strong winds
will combine to generate low wind chills. This will result in
frost bite and lead to hypothermia if precautions are not taken.
If you must venture outdoors... make sure you wear a hat and
gloves.